createdAt,value
2019-05-05T00:00:21.294Z,980.00
2019-05-05T00:01:21.243Z,980.00
2019-05-05T00:02:21.204Z,979.99
2019-05-05T00:03:21.195Z,979.98
2019-05-05T00:04:21.105Z,979.97
2019-05-05T00:05:21.065Z,979.96
2019-05-05T00:06:21.023Z,979.99
2019-05-05T00:07:21.015Z,979.98
2019-05-05T00:08:20.951Z,979.97
2019-05-05T00:09:20.908Z,979.98
2019-05-05T00:10:20.852Z,979.98
2019-05-05T00:11:20.826Z,979.99
2019-05-05T00:12:20.758Z,980.03
2019-05-05T00:13:20.739Z,980.04
2019-05-05T00:14:20.685Z,980.06
2019-05-05T00:15:20.657Z,980.07
2019-05-05T00:16:20.628Z,980.06
2019-05-05T00:17:20.563Z,980.04
2019-05-05T00:18:20.516Z,980.06
2019-05-05T00:19:30.688Z,980.12
2019-05-05T00:20:20.438Z,980.12
2019-05-05T00:21:20.409Z,980.11
2019-05-05T00:22:20.349Z,980.11
2019-05-05T00:23:20.297Z,980.08
2019-05-05T00:24:20.262Z,980.08
2019-05-05T00:25:20.224Z,980.11
2019-05-05T00:26:20.183Z,980.15
2019-05-05T00:27:20.132Z,980.16
2019-05-05T00:28:20.147Z,980.18
2019-05-05T00:29:20.050Z,980.21
2019-05-05T00:30:20.013Z,980.24
2019-05-05T00:31:19.986Z,980.26
2019-05-05T00:32:19.940Z,980.23
2019-05-05T00:33:19.875Z,980.27
2019-05-05T00:34:19.862Z,980.29
2019-05-05T00:35:19.815Z,980.26
2019-05-05T00:36:19.761Z,980.29
2019-05-05T00:37:19.727Z,980.29
2019-05-05T00:38:19.709Z,980.32
2019-05-05T00:39:19.652Z,980.33
2019-05-05T00:40:19.603Z,980.34
2019-05-05T00:41:19.547Z,980.32
2019-05-05T00:42:19.500Z,980.32
2019-05-05T00:43:19.466Z,980.37
2019-05-05T00:44:19.434Z,980.36
2019-05-05T00:45:19.377Z,980.40
2019-05-05T00:46:19.356Z,980.41
2019-05-05T00:47:19.298Z,980.43
2019-05-05T00:48:19.256Z,980.44
2019-05-05T00:49:19.210Z,980.48
2019-05-05T00:50:19.168Z,980.50
2019-05-05T00:51:19.133Z,980.51
2019-05-05T00:52:19.093Z,980.54
2019-05-05T00:53:19.037Z,980.58
2019-05-05T00:54:18.999Z,980.60
2019-05-05T00:55:18.968Z,980.63
2019-05-05T00:56:18.911Z,980.64
2019-05-05T00:57:18.890Z,980.68
2019-05-05T00:58:18.845Z,980.68
2019-05-05T00:59:18.789Z,980.66
2019-05-05T01:00:18.762Z,980.70
2019-05-05T01:01:18.708Z,980.65
2019-05-05T01:02:18.691Z,980.70
2019-05-05T01:03:18.615Z,980.72
2019-05-05T01:04:18.584Z,980.69
2019-05-05T01:05:18.539Z,980.66
2019-05-05T01:06:18.492Z,980.67
2019-05-05T01:07:18.469Z,980.69
2019-05-05T01:08:18.409Z,980.71
2019-05-05T01:09:18.375Z,980.69
2019-05-05T01:10:18.337Z,980.70
2019-05-05T01:11:18.294Z,980.74
2019-05-05T01:12:18.241Z,980.70
2019-05-05T01:13:18.215Z,980.73
2019-05-05T01:14:18.166Z,980.76
2019-05-05T01:15:18.111Z,980.78
2019-05-05T01:16:18.076Z,980.82
2019-05-05T01:17:18.037Z,980.76
2019-05-05T01:18:17.985Z,980.73
2019-05-05T01:19:17.955Z,980.77
2019-05-05T01:20:17.914Z,980.74
2019-05-05T01:21:17.863Z,980.71
2019-05-05T01:22:17.839Z,980.73
2019-05-05T01:23:17.778Z,980.78
2019-05-05T01:24:17.771Z,980.77
2019-05-05T01:25:17.699Z,980.79
2019-05-05T01:26:17.667Z,980.76
2019-05-05T01:27:17.608Z,980.77
2019-05-05T01:28:17.578Z,980.78
2019-05-05T01:29:17.535Z,980.83
2019-05-05T01:30:17.505Z,980.87
2019-05-05T01:31:17.451Z,980.94
2019-05-05T01:32:17.433Z,980.96
2019-05-05T01:33:17.364Z,980.98
2019-05-05T01:34:17.311Z,981.01
2019-05-05T01:35:17.274Z,981.04
2019-05-05T01:36:17.271Z,981.03
2019-05-05T01:37:17.203Z,981.08
2019-05-05T01:38:17.151Z,981.06
2019-05-05T01:39:17.136Z,981.06
2019-05-05T01:40:17.084Z,981.08
2019-05-05T01:41:17.035Z,981.02
2019-05-05T01:42:16.983Z,981.05
2019-05-05T01:43:16.941Z,981.09
2019-05-05T01:44:16.903Z,981.13
2019-05-05T01:45:16.868Z,981.12
2019-05-05T01:46:16.819Z,981.13
2019-05-05T01:47:16.781Z,981.16
2019-05-05T01:48:16.734Z,981.10
2019-05-05T01:49:16.698Z,981.10
2019-05-05T01:50:20.870Z,981.11
2019-05-05T01:51:16.611Z,981.13
2019-05-05T01:52:16.555Z,981.10
2019-05-05T01:53:16.518Z,981.12
2019-05-05T01:54:16.473Z,981.12
2019-05-05T01:55:16.435Z,981.15
2019-05-05T01:56:16.399Z,981.19
2019-05-05T01:57:16.381Z,981.20
2019-05-05T01:58:16.324Z,981.17
2019-05-05T01:59:16.302Z,981.21
2019-05-05T02:00:16.253Z,981.21
2019-05-05T02:01:16.206Z,981.20
2019-05-05T02:02:16.174Z,981.23
2019-05-05T02:03:16.120Z,981.16
2019-05-05T02:04:16.088Z,981.16
2019-05-05T02:05:16.039Z,981.17
2019-05-05T02:06:15.980Z,981.18
2019-05-05T02:07:15.937Z,981.18
2019-05-05T02:08:15.894Z,981.19
2019-05-05T02:09:16.045Z,981.26
2019-05-05T02:10:15.836Z,981.29
2019-05-05T02:11:15.789Z,981.34
2019-05-05T02:12:16.041Z,981.33
2019-05-05T02:13:16.127Z,981.33
2019-05-05T02:14:15.723Z,981.38
2019-05-05T02:15:15.619Z,981.37
2019-05-05T02:16:15.560Z,981.40
2019-05-05T02:17:15.520Z,981.36
2019-05-05T02:18:15.478Z,981.38
2019-05-05T02:19:15.445Z,981.41
2019-05-05T02:20:27.987Z,981.42
2019-05-05T02:21:15.360Z,981.39
2019-05-05T02:22:15.310Z,981.41
2019-05-05T02:23:15.267Z,981.43
2019-05-05T02:24:15.232Z,981.46
2019-05-05T02:25:15.190Z,981.43
2019-05-05T02:26:15.414Z,981.45
2019-05-05T02:27:15.114Z,981.44
2019-05-05T02:28:15.160Z,981.44
2019-05-05T02:29:15.013Z,981.43
2019-05-05T02:30:16.282Z,981.46
2019-05-05T02:31:16.631Z,981.44
2019-05-05T02:32:15.737Z,981.45
2019-05-05T02:33:15.735Z,981.49
2019-05-05T02:34:16.443Z,981.50
2019-05-05T02:35:16.278Z,981.50
2019-05-05T02:36:15.959Z,981.51
2019-05-05T02:37:16.055Z,981.51
2019-05-05T02:38:15.645Z,981.50
2019-05-05T02:39:16.016Z,981.52
2019-05-05T02:40:15.907Z,981.56
2019-05-05T02:41:15.477Z,981.52
2019-05-05T02:42:14.813Z,981.55
2019-05-05T02:43:15.278Z,981.55
2019-05-05T02:44:15.522Z,981.59
2019-05-05T02:45:15.575Z,981.58
2019-05-05T02:46:14.612Z,981.61
2019-05-05T02:47:15.542Z,981.63
2019-05-05T02:48:15.291Z,981.65
2019-05-05T02:49:15.113Z,981.63
2019-05-05T02:50:15.550Z,981.67
2019-05-05T02:51:15.092Z,981.68
2019-05-05T02:52:15.091Z,981.70
2019-05-05T02:53:14.328Z,981.72
2019-05-05T02:54:13.973Z,981.75
2019-05-05T02:55:14.697Z,981.74
2019-05-05T02:56:14.628Z,981.84
2019-05-05T02:57:13.867Z,981.81
2019-05-05T02:58:14.059Z,981.78
2019-05-05T02:59:14.687Z,981.80
2019-05-05T03:00:13.734Z,981.83
2019-05-05T03:01:14.049Z,981.79
2019-05-05T03:02:14.487Z,981.80
2019-05-05T03:03:13.605Z,981.80
2019-05-05T03:04:14.104Z,981.80
2019-05-05T03:05:14.291Z,981.79
2019-05-05T03:06:14.468Z,981.78
2019-05-05T03:07:13.836Z,981.77
2019-05-05T03:08:13.863Z,981.79
2019-05-05T03:09:13.799Z,981.81
2019-05-05T03:10:14.097Z,981.79
2019-05-05T03:11:14.457Z,981.84
2019-05-05T03:12:14.918Z,981.83
2019-05-05T03:13:13.956Z,981.83
2019-05-05T03:14:14.319Z,981.84
2019-05-05T03:15:14.283Z,981.85
2019-05-05T03:16:14.217Z,981.83
2019-05-05T03:17:14.323Z,981.87
2019-05-05T03:18:13.439Z,981.87
2019-05-05T03:19:14.234Z,981.88
2019-05-05T03:20:14.521Z,981.91
2019-05-05T03:21:14.010Z,981.94
2019-05-05T03:22:14.286Z,981.96
2019-05-05T03:23:13.660Z,981.98
2019-05-05T03:24:14.313Z,981.98
2019-05-05T03:25:13.632Z,982.00
2019-05-05T03:26:14.075Z,981.99
2019-05-05T03:27:14.321Z,982.03
2019-05-05T03:28:13.620Z,982.01
2019-05-05T03:29:13.849Z,982.00
2019-05-05T03:30:15.234Z,982.00
2019-05-05T03:31:15.540Z,982.00
2019-05-05T03:32:15.930Z,982.03
2019-05-05T03:33:15.679Z,982.03
2019-05-05T03:34:16.037Z,982.06
2019-05-05T03:35:13.558Z,982.03
2019-05-05T03:36:13.997Z,982.05
2019-05-05T03:37:12.186Z,982.03
2019-05-05T03:38:14.128Z,982.04
2019-05-05T03:39:12.106Z,982.04
2019-05-05T03:40:12.099Z,982.07
2019-05-05T03:41:13.586Z,982.12
2019-05-05T03:42:13.813Z,982.09
2019-05-05T03:43:11.940Z,982.13
2019-05-05T03:44:13.983Z,982.12
2019-05-05T03:45:11.859Z,982.15
2019-05-05T03:46:13.537Z,982.15
2019-05-05T03:47:13.485Z,982.19
2019-05-05T03:48:13.598Z,982.18
2019-05-05T03:49:13.757Z,982.21
2019-05-05T03:50:11.637Z,982.19
2019-05-05T03:51:18.775Z,982.17
2019-05-05T03:52:11.560Z,982.15
2019-05-05T03:53:11.514Z,982.15
2019-05-05T03:54:11.470Z,982.11
2019-05-05T03:55:13.647Z,982.15
2019-05-05T03:56:11.391Z,982.13
2019-05-05T03:57:11.374Z,982.13
2019-05-05T03:58:11.328Z,982.12
2019-05-05T03:59:11.272Z,982.12
2019-05-05T04:00:11.241Z,982.12
2019-05-05T04:01:11.220Z,982.13
2019-05-05T04:02:11.173Z,982.13
2019-05-05T04:03:11.130Z,982.15
2019-05-05T04:04:11.080Z,982.17
2019-05-05T04:05:11.034Z,982.17
2019-05-05T04:06:10.977Z,982.19
2019-05-05T04:07:10.945Z,982.19
2019-05-05T04:08:10.910Z,982.18
2019-05-05T04:09:10.889Z,982.21
2019-05-05T04:10:10.845Z,982.24
2019-05-05T04:11:10.795Z,982.21
2019-05-05T04:12:10.789Z,982.24
2019-05-05T04:13:10.680Z,982.19
2019-05-05T04:14:10.648Z,982.20
2019-05-05T04:15:10.598Z,982.18
2019-05-05T04:16:10.558Z,982.17
2019-05-05T04:17:10.535Z,982.21
2019-05-05T04:18:10.474Z,982.18
2019-05-05T04:19:10.429Z,982.19
2019-05-05T04:20:10.396Z,982.21
2019-05-05T04:21:10.347Z,982.17
2019-05-05T04:22:10.320Z,982.17
2019-05-05T04:23:10.266Z,982.20
2019-05-05T04:24:10.229Z,982.19
2019-05-05T04:25:10.179Z,982.19
2019-05-05T04:26:10.141Z,982.21
2019-05-05T04:27:10.112Z,982.23
2019-05-05T04:28:10.084Z,982.23
2019-05-05T04:29:10.046Z,982.26
2019-05-05T04:30:10.005Z,982.24
2019-05-05T04:31:10.004Z,982.27
2019-05-05T04:32:09.905Z,982.29
2019-05-05T04:33:09.887Z,982.30
2019-05-05T04:34:09.810Z,982.25
2019-05-05T04:35:09.834Z,982.27
2019-05-05T04:36:09.748Z,982.25
2019-05-05T04:37:09.705Z,982.30
2019-05-05T04:38:09.666Z,982.31
2019-05-05T04:39:09.644Z,982.29
2019-05-05T04:40:09.567Z,982.32
2019-05-05T04:41:09.554Z,982.38
2019-05-05T04:42:09.508Z,982.41
2019-05-05T04:43:09.489Z,982.46
2019-05-05T04:44:09.412Z,982.47
2019-05-05T04:45:09.351Z,982.48
2019-05-05T04:46:09.316Z,982.44
2019-05-05T04:47:09.271Z,982.49
2019-05-05T04:48:09.238Z,982.49
2019-05-05T04:49:09.184Z,982.55
2019-05-05T04:50:09.150Z,982.54
2019-05-05T04:51:09.108Z,982.54
2019-05-05T04:52:09.065Z,982.57
2019-05-05T04:53:09.022Z,982.56
2019-05-05T04:54:08.985Z,982.56
2019-05-05T04:55:08.946Z,982.56
2019-05-05T04:56:08.897Z,982.54
2019-05-05T04:57:08.901Z,982.55
2019-05-05T04:58:08.814Z,982.55
2019-05-05T04:59:08.803Z,982.59
2019-05-05T05:00:08.758Z,982.59
2019-05-05T05:01:08.729Z,982.65
2019-05-05T05:02:08.649Z,982.63
2019-05-05T05:03:08.643Z,982.71
2019-05-05T05:04:08.621Z,982.71
2019-05-05T05:05:08.538Z,982.72
2019-05-05T05:06:08.499Z,982.74
2019-05-05T05:07:08.460Z,982.78
2019-05-05T05:08:08.408Z,982.77
2019-05-05T05:09:08.415Z,982.82
2019-05-05T05:10:08.358Z,982.82
2019-05-05T05:11:08.299Z,982.88
2019-05-05T05:12:08.261Z,982.88
2019-05-05T05:13:08.199Z,982.90
2019-05-05T05:14:08.146Z,982.89
2019-05-05T05:15:08.109Z,982.88
2019-05-05T05:16:08.059Z,982.85
2019-05-05T05:17:08.018Z,982.86
2019-05-05T05:18:07.980Z,982.91
2019-05-05T05:19:07.937Z,982.94
2019-05-05T05:20:07.898Z,982.91
2019-05-05T05:21:07.863Z,982.92
2019-05-05T05:22:07.813Z,982.91
2019-05-05T05:23:07.778Z,982.94
2019-05-05T05:24:07.733Z,982.95
2019-05-05T05:25:07.690Z,982.96
2019-05-05T05:26:07.655Z,982.99
2019-05-05T05:27:07.614Z,983.00
2019-05-05T05:28:07.576Z,983.03
2019-05-05T05:29:07.551Z,983.06
2019-05-05T05:30:07.522Z,983.01
2019-05-05T05:31:07.452Z,983.01
2019-05-05T05:32:07.395Z,983.05
2019-05-05T05:33:07.363Z,983.04
2019-05-05T05:34:07.317Z,983.01
2019-05-05T05:35:07.323Z,983.05
2019-05-05T05:36:07.273Z,983.07
2019-05-05T05:37:07.241Z,983.09
2019-05-05T05:38:07.150Z,983.14
2019-05-05T05:39:07.126Z,983.18
2019-05-05T05:40:07.090Z,983.15
2019-05-05T05:41:07.035Z,983.20
2019-05-05T05:42:06.986Z,983.16
2019-05-05T05:43:06.954Z,983.17
2019-05-05T05:44:06.909Z,983.20
2019-05-05T05:45:06.858Z,983.18
2019-05-05T05:46:06.837Z,983.18
2019-05-05T05:47:06.810Z,983.22
2019-05-05T05:48:06.737Z,983.23
2019-05-05T05:49:06.712Z,983.24
2019-05-05T05:50:06.705Z,983.23
2019-05-05T05:51:06.630Z,983.26
2019-05-05T05:52:15.757Z,983.26
2019-05-05T05:53:06.531Z,983.26
2019-05-05T05:54:06.536Z,983.27
2019-05-05T05:55:06.491Z,983.29
2019-05-05T05:56:06.427Z,983.24
2019-05-05T05:57:06.404Z,983.25
2019-05-05T05:58:06.348Z,983.22
2019-05-05T05:59:06.327Z,983.26
2019-05-05T06:00:06.298Z,983.27
2019-05-05T06:01:06.232Z,983.24
2019-05-05T06:02:12.232Z,983.26
2019-05-05T06:03:06.161Z,983.21
2019-05-05T06:04:06.098Z,983.25
2019-05-05T06:05:06.047Z,983.26
2019-05-05T06:06:06.019Z,983.28
2019-05-05T06:07:05.964Z,983.30
2019-05-05T06:08:05.941Z,983.30
2019-05-05T06:09:05.898Z,983.28
2019-05-05T06:10:05.841Z,983.33
2019-05-05T06:11:05.829Z,983.29
2019-05-05T06:12:05.800Z,983.31
2019-05-05T06:13:05.785Z,983.32
2019-05-05T06:14:05.745Z,983.29
2019-05-05T06:15:05.643Z,983.34
2019-05-05T06:16:05.690Z,983.34
2019-05-05T06:17:05.589Z,983.30
2019-05-05T06:18:05.540Z,983.35
2019-05-05T06:19:05.526Z,983.36
2019-05-05T06:20:05.503Z,983.38
2019-05-05T06:21:05.418Z,983.33
2019-05-05T06:22:05.393Z,983.37
2019-05-05T06:23:05.351Z,983.35
2019-05-05T06:24:05.301Z,983.37
2019-05-05T06:25:06.611Z,983.40
2019-05-05T06:26:06.865Z,983.41
2019-05-05T06:27:05.185Z,983.42
2019-05-05T06:28:05.134Z,983.42
2019-05-05T06:29:05.104Z,983.44
2019-05-05T06:30:05.079Z,983.44
2019-05-05T06:31:05.096Z,983.48
2019-05-05T06:32:04.991Z,983.48
2019-05-05T06:33:05.042Z,983.47
2019-05-05T06:34:04.902Z,983.47
2019-05-05T06:35:04.864Z,983.52
2019-05-05T06:36:04.828Z,983.58
2019-05-05T06:37:04.801Z,983.58
2019-05-05T06:38:04.876Z,983.58
2019-05-05T06:39:04.703Z,983.63
2019-05-05T06:40:04.662Z,983.60
2019-05-05T06:41:04.634Z,983.64
2019-05-05T06:42:04.617Z,983.66
2019-05-05T06:43:04.554Z,983.63
2019-05-05T06:44:04.534Z,983.66
2019-05-05T06:45:04.493Z,983.64
2019-05-05T06:46:04.445Z,983.67
2019-05-05T06:47:04.905Z,983.63
2019-05-05T06:48:04.441Z,983.66
2019-05-05T06:49:04.459Z,983.72
2019-05-05T06:50:04.283Z,983.72
2019-05-05T06:51:04.276Z,983.76
2019-05-05T06:52:04.353Z,983.77
2019-05-05T06:53:04.395Z,983.77
2019-05-05T06:54:04.719Z,983.82
2019-05-05T06:55:04.107Z,983.80
2019-05-05T06:56:04.230Z,983.78
2019-05-05T06:57:04.600Z,983.78
2019-05-05T06:58:04.638Z,983.83
2019-05-05T06:59:04.407Z,983.75
2019-05-05T07:00:03.930Z,983.73
2019-05-05T07:01:03.882Z,983.78
2019-05-05T07:02:04.351Z,983.74
2019-05-05T07:03:07.382Z,983.80
2019-05-05T07:04:03.763Z,983.75
2019-05-05T07:05:04.181Z,983.78
2019-05-05T07:06:04.471Z,983.74
2019-05-05T07:07:05.156Z,983.68
2019-05-05T07:08:04.431Z,983.66
2019-05-05T07:09:05.346Z,983.71
2019-05-05T07:10:03.800Z,983.69
2019-05-05T07:11:04.051Z,983.71
2019-05-05T07:12:04.475Z,983.76
2019-05-05T07:13:04.943Z,983.77
2019-05-05T07:14:03.797Z,983.77
2019-05-05T07:15:04.252Z,983.78
2019-05-05T07:16:04.894Z,983.73
2019-05-05T07:17:05.090Z,983.75
2019-05-05T07:18:03.773Z,983.72
2019-05-05T07:19:04.343Z,983.73
2019-05-05T07:20:04.389Z,983.75
2019-05-05T07:21:03.795Z,983.76
2019-05-05T07:22:04.063Z,983.73
2019-05-05T07:23:05.401Z,983.74
2019-05-05T07:24:03.944Z,983.77
2019-05-05T07:25:04.727Z,983.76
2019-05-05T07:26:04.201Z,983.74
2019-05-05T07:27:04.822Z,983.72
2019-05-05T07:28:04.284Z,983.77
2019-05-05T07:29:04.589Z,983.78
2019-05-05T07:30:04.772Z,983.78
2019-05-05T07:31:04.420Z,983.80
2019-05-05T07:32:03.933Z,983.84
2019-05-05T07:33:04.574Z,983.85
2019-05-05T07:34:04.589Z,983.90
2019-05-05T07:35:04.069Z,983.90
2019-05-05T07:36:05.852Z,983.90
2019-05-05T07:37:03.854Z,983.96
2019-05-05T07:38:04.510Z,983.97
2019-05-05T07:39:03.838Z,983.98
2019-05-05T07:40:04.252Z,984.01
2019-05-05T07:41:03.648Z,983.99
2019-05-05T07:42:04.432Z,984.01
2019-05-05T07:43:04.369Z,984.00
2019-05-05T07:44:04.627Z,983.99
2019-05-05T07:45:05.481Z,983.98
2019-05-05T07:46:03.918Z,984.01
2019-05-05T07:47:03.623Z,984.04
2019-05-05T07:48:08.500Z,984.03
2019-05-05T07:49:03.897Z,984.03
2019-05-05T07:50:04.147Z,984.06
2019-05-05T07:51:05.120Z,984.06
2019-05-05T07:52:04.041Z,984.05
2019-05-05T07:53:12.216Z,984.04
2019-05-05T07:54:03.837Z,984.06
2019-05-05T07:55:03.632Z,984.06
2019-05-05T07:56:03.937Z,984.04
2019-05-05T07:57:04.075Z,984.04
2019-05-05T07:58:04.180Z,984.03
2019-05-05T07:59:03.781Z,984.15
2019-05-05T08:00:01.965Z,984.16
2019-05-05T08:01:01.944Z,984.05
2019-05-05T08:02:03.883Z,984.06
2019-05-05T08:03:03.737Z,984.16
2019-05-05T08:04:01.813Z,984.14
2019-05-05T08:05:01.813Z,984.16
2019-05-05T08:06:03.816Z,984.13
2019-05-05T08:07:03.946Z,984.20
2019-05-05T08:08:01.704Z,984.19
2019-05-05T08:09:03.941Z,984.25
2019-05-05T08:10:01.633Z,984.21
2019-05-05T08:11:01.634Z,984.20
2019-05-05T08:12:01.584Z,984.22
2019-05-05T08:13:01.555Z,984.18
2019-05-05T08:14:03.857Z,984.17
2019-05-05T08:15:01.492Z,984.17
2019-05-05T08:16:03.687Z,984.16
2019-05-05T08:17:01.457Z,984.17
2019-05-05T08:18:01.396Z,984.13
2019-05-05T08:19:01.366Z,984.18
2019-05-05T08:20:03.845Z,984.18
2019-05-05T08:21:01.324Z,984.16
2019-05-05T08:22:01.636Z,984.17
2019-05-05T08:23:01.224Z,984.19
2019-05-05T08:24:01.224Z,984.19
2019-05-05T08:25:01.163Z,984.13
2019-05-05T08:26:01.118Z,984.18
2019-05-05T08:27:01.148Z,984.16
2019-05-05T08:28:01.074Z,984.17
2019-05-05T08:29:01.027Z,984.11
2019-05-05T08:30:03.109Z,984.16
2019-05-05T08:31:00.976Z,984.19
2019-05-05T08:32:00.962Z,984.20
2019-05-05T08:33:00.913Z,984.26
2019-05-05T08:34:00.899Z,984.24
2019-05-05T08:35:01.167Z,984.31
2019-05-05T08:36:00.824Z,984.34
2019-05-05T08:37:00.760Z,984.32
2019-05-05T08:38:00.729Z,984.34
2019-05-05T08:39:00.710Z,984.32
2019-05-05T08:40:00.728Z,984.32
2019-05-05T08:41:00.649Z,984.31
2019-05-05T08:42:00.657Z,984.30
2019-05-05T08:43:00.584Z,984.28
2019-05-05T08:44:00.553Z,984.31
2019-05-05T08:45:00.530Z,984.28
2019-05-05T08:46:00.531Z,984.27
2019-05-05T08:47:00.460Z,984.26
2019-05-05T08:48:00.431Z,984.27
2019-05-05T08:49:00.402Z,984.25
2019-05-05T08:50:00.394Z,984.30
2019-05-05T08:51:00.367Z,984.33
2019-05-05T08:52:00.313Z,984.33
2019-05-05T08:53:00.338Z,984.32
2019-05-05T08:54:00.296Z,984.34
2019-05-05T08:55:00.230Z,984.28
2019-05-05T08:56:00.211Z,984.30
2019-05-05T08:57:00.189Z,984.35
2019-05-05T08:58:00.175Z,984.32
2019-05-05T08:59:00.119Z,984.31
2019-05-05T09:00:00.086Z,984.30
2019-05-05T09:01:00.124Z,984.31
2019-05-05T09:02:00.039Z,984.26
2019-05-05T09:03:00.005Z,984.28
2019-05-05T09:03:59.967Z,984.26
2019-05-05T09:04:59.959Z,984.27
2019-05-05T09:05:59.922Z,984.31
2019-05-05T09:06:59.903Z,984.35
2019-05-05T09:07:59.863Z,984.33
2019-05-05T09:08:59.883Z,984.38
2019-05-05T09:09:59.803Z,984.32
2019-05-05T09:10:59.785Z,984.34
2019-05-05T09:11:59.755Z,984.37
2019-05-05T09:12:59.704Z,984.39
2019-05-05T09:13:59.702Z,984.37
2019-05-05T09:14:59.648Z,984.38
2019-05-05T09:15:59.609Z,984.41
2019-05-05T09:16:59.585Z,984.35
2019-05-05T09:17:59.612Z,984.40
2019-05-05T09:18:59.515Z,984.38
2019-05-05T09:19:59.489Z,984.36
2019-05-05T09:20:59.449Z,984.37
2019-05-05T09:21:59.457Z,984.40
2019-05-05T09:22:59.401Z,984.40
2019-05-05T09:24:02.527Z,984.40
2019-05-05T09:24:59.325Z,984.41
2019-05-05T09:25:59.289Z,984.39
2019-05-05T09:26:59.258Z,984.41
2019-05-05T09:27:59.212Z,984.36
2019-05-05T09:28:59.211Z,984.38
2019-05-05T09:29:59.172Z,984.39
2019-05-05T09:30:59.145Z,984.40
2019-05-05T09:31:59.128Z,984.44
2019-05-05T09:32:59.056Z,984.45
2019-05-05T09:33:59.025Z,984.46
2019-05-05T09:34:59.027Z,984.43
2019-05-05T09:35:58.970Z,984.45
2019-05-05T09:36:58.949Z,984.44
2019-05-05T09:37:58.895Z,984.45
2019-05-05T09:38:58.856Z,984.41
2019-05-05T09:39:58.846Z,984.47
2019-05-05T09:40:58.794Z,984.45
2019-05-05T09:41:58.755Z,984.45
2019-05-05T09:42:58.739Z,984.47
2019-05-05T09:43:58.690Z,984.47
2019-05-05T09:44:58.664Z,984.51
2019-05-05T09:45:58.609Z,984.44
2019-05-05T09:46:58.588Z,984.47
2019-05-05T09:47:58.541Z,984.45
2019-05-05T09:48:58.519Z,984.46
2019-05-05T09:50:00.259Z,984.45
2019-05-05T09:50:58.451Z,984.41
2019-05-05T09:51:58.402Z,984.41
2019-05-05T09:52:58.369Z,984.40
2019-05-05T09:54:11.168Z,984.40
2019-05-05T09:54:58.326Z,984.37
2019-05-05T09:55:58.276Z,984.39
2019-05-05T09:56:58.225Z,984.39
2019-05-05T09:57:58.230Z,984.39
2019-05-05T09:58:58.177Z,984.41
2019-05-05T09:59:58.149Z,984.45
2019-05-05T10:00:58.111Z,984.41
2019-05-05T10:01:58.075Z,984.48
2019-05-05T10:02:58.019Z,984.47
2019-05-05T10:03:57.999Z,984.47
2019-05-05T10:04:57.963Z,984.50
2019-05-05T10:05:57.943Z,984.49
2019-05-05T10:06:57.881Z,984.48
2019-05-05T10:07:57.854Z,984.53
2019-05-05T10:08:57.824Z,984.53
2019-05-05T10:09:57.794Z,984.54
2019-05-05T10:10:57.771Z,984.62
2019-05-05T10:11:57.712Z,984.57
2019-05-05T10:12:57.699Z,984.62
2019-05-05T10:13:57.648Z,984.61
2019-05-05T10:14:57.628Z,984.61
2019-05-05T10:15:57.570Z,984.58
2019-05-05T10:16:57.546Z,984.57
2019-05-05T10:17:57.532Z,984.57
2019-05-05T10:18:57.518Z,984.57
2019-05-05T10:19:57.455Z,984.56
2019-05-05T10:20:57.417Z,984.54
2019-05-05T10:21:57.393Z,984.55
2019-05-05T10:22:57.359Z,984.57
2019-05-05T10:23:57.312Z,984.49
2019-05-05T10:24:57.701Z,984.57
2019-05-05T10:25:57.255Z,984.57
2019-05-05T10:26:58.673Z,984.55
2019-05-05T10:27:57.196Z,984.55
2019-05-05T10:28:57.173Z,984.51
2019-05-05T10:29:57.135Z,984.55
2019-05-05T10:30:57.090Z,984.49
2019-05-05T10:31:57.055Z,984.44
2019-05-05T10:32:57.021Z,984.46
2019-05-05T10:33:56.973Z,984.45
2019-05-05T10:34:56.956Z,984.42
2019-05-05T10:35:56.923Z,984.40
2019-05-05T10:36:56.905Z,984.41
2019-05-05T10:37:56.878Z,984.43
2019-05-05T10:38:56.834Z,984.39
2019-05-05T10:39:56.827Z,984.35
2019-05-05T10:40:56.799Z,984.29
2019-05-05T10:41:56.726Z,984.31
2019-05-05T10:42:56.743Z,984.38
2019-05-05T10:43:56.675Z,984.34
2019-05-05T10:44:56.633Z,984.27
2019-05-05T10:45:56.622Z,984.33
2019-05-05T10:46:56.574Z,984.32
2019-05-05T10:47:56.579Z,984.26
2019-05-05T10:48:59.583Z,984.33
2019-05-05T10:49:56.507Z,984.31
2019-05-05T10:50:56.474Z,984.35
2019-05-05T10:51:56.448Z,984.34
2019-05-05T10:52:56.417Z,984.38
2019-05-05T10:53:56.455Z,984.32
2019-05-05T10:54:56.380Z,984.33
2019-05-05T10:55:56.305Z,984.31
2019-05-05T10:56:56.266Z,984.31
2019-05-05T10:57:56.343Z,984.33
2019-05-05T10:58:56.264Z,984.29
2019-05-05T11:00:09.049Z,984.31
2019-05-05T11:00:56.270Z,984.30
2019-05-05T11:01:56.113Z,984.34
2019-05-05T11:02:59.207Z,984.29
2019-05-05T11:03:56.129Z,984.31
2019-05-05T11:04:55.992Z,984.33
2019-05-05T11:05:56.057Z,984.35
2019-05-05T11:06:55.953Z,984.33
2019-05-05T11:07:55.929Z,984.30
2019-05-05T11:08:55.967Z,984.37
2019-05-05T11:09:55.924Z,984.39
2019-05-05T11:10:55.806Z,984.34
2019-05-05T11:11:55.779Z,984.35
2019-05-05T11:12:55.733Z,984.42
2019-05-05T11:13:55.780Z,984.40
2019-05-05T11:14:55.702Z,984.41
2019-05-05T11:15:55.676Z,984.42
2019-05-05T11:16:55.585Z,984.39
2019-05-05T11:17:55.620Z,984.37
2019-05-05T11:18:55.542Z,984.41
2019-05-05T11:19:55.487Z,984.36
2019-05-05T11:20:55.463Z,984.40
2019-05-05T11:21:55.445Z,984.43
2019-05-05T11:22:55.386Z,984.42
2019-05-05T11:23:55.364Z,984.40
2019-05-05T11:25:00.772Z,984.37
2019-05-05T11:25:55.287Z,984.36
2019-05-05T11:26:55.284Z,984.35
2019-05-05T11:27:55.279Z,984.38
2019-05-05T11:28:55.208Z,984.36
2019-05-05T11:29:55.165Z,984.39
2019-05-05T11:30:55.129Z,984.37
2019-05-05T11:31:55.154Z,984.37
2019-05-05T11:32:55.086Z,984.39
2019-05-05T11:33:55.032Z,984.36
2019-05-05T11:34:55.129Z,984.39
2019-05-05T11:35:55.023Z,984.41
2019-05-05T11:36:54.930Z,984.40
2019-05-05T11:37:54.951Z,984.45
2019-05-05T11:38:54.861Z,984.41
2019-05-05T11:39:54.832Z,984.39
2019-05-05T11:40:54.874Z,984.36
2019-05-05T11:41:54.922Z,984.38
2019-05-05T11:42:54.733Z,984.40
2019-05-05T11:43:54.778Z,984.35
2019-05-05T11:44:54.703Z,984.37
2019-05-05T11:45:54.667Z,984.36
2019-05-05T11:46:54.841Z,984.37
2019-05-05T11:47:54.585Z,984.34
2019-05-05T11:48:54.581Z,984.41
2019-05-05T11:49:56.627Z,984.39
2019-05-05T11:50:54.449Z,984.35
2019-05-05T11:51:54.443Z,984.37
2019-05-05T11:52:54.540Z,984.41
2019-05-05T11:53:54.382Z,984.39
2019-05-05T11:54:58.337Z,984.39
2019-05-05T11:55:55.106Z,984.43
2019-05-05T11:56:54.363Z,984.42
2019-05-05T11:57:57.357Z,984.46
2019-05-05T11:58:54.722Z,984.49
2019-05-05T11:59:54.157Z,984.48
2019-05-05T12:00:54.587Z,984.44
2019-05-05T12:01:54.994Z,984.47
2019-05-05T12:02:54.395Z,984.46
2019-05-05T12:03:54.020Z,984.48
2019-05-05T12:04:54.143Z,984.48
2019-05-05T12:05:53.978Z,984.44
2019-05-05T12:06:53.926Z,984.52
2019-05-05T12:07:54.153Z,984.49
2019-05-05T12:08:53.879Z,984.49
2019-05-05T12:09:54.905Z,984.50
2019-05-05T12:10:54.274Z,984.51
2019-05-05T12:11:54.501Z,984.56
2019-05-05T12:12:53.781Z,984.54
2019-05-05T12:13:54.649Z,984.55
2019-05-05T12:14:53.992Z,984.57
2019-05-05T12:15:53.859Z,984.59
2019-05-05T12:16:53.617Z,984.55
2019-05-05T12:17:54.532Z,984.58
2019-05-05T12:18:53.986Z,984.54
2019-05-05T12:19:54.075Z,984.56
2019-05-05T12:20:54.410Z,984.57
2019-05-05T12:21:54.853Z,984.54
2019-05-05T12:22:53.911Z,984.52
2019-05-05T12:23:54.654Z,984.50
2019-05-05T12:24:53.579Z,984.51
2019-05-05T12:25:57.006Z,984.56
2019-05-05T12:26:54.240Z,984.55
2019-05-05T12:27:53.246Z,984.52